Погода Дольныйна 2 недели

Ростовская область, Россия

16 - 29 июля
  • 16июля
    Сегодня
    +25°
    +39°
    Облачно с прояснениями
    ВремяПогодаТемператураВлажностьДавлениеВетер, м/сВероятность осадков
    00:00Ясно и безоблачно+26°C27 %751 мм3.6 м/с2 %
    03:00Ясно и безоблачно+24°C33 %751 мм3.2 м/с2 %
    06:00Ясно и безоблачно+25°C32 %752 мм3.4 м/с2 %
    09:00Ясно и безоблачно+34°C23 %752 мм3.7 м/с2 %
    12:00Ясно и безоблачно+37°C19 %752 мм4.7 м/с2 %
    15:00Облачно с прояснениями+38°C17 %751 мм4.6 м/с2 %
    18:00Облачно с прояснениями+37°C18 %751 мм4.4 м/с2 %
    21:00Практически безоблачно+31°C25 %752 мм4.2 м/с2 %
  • 17июля
    Среда
    +24°
    +39°
    Практически безоблачно
    ВремяПогодаТемператураВлажностьДавлениеВетер, м/сВероятность осадков
    00:00Ясно и безоблачно+28°C27 %752 мм3.7 м/с2 %
    03:00Ясно и безоблачно+26°C28 %752 мм4.3 м/с2 %
    06:00Ясно и безоблачно+26°C32 %753 мм3.1 м/с2 %
    09:00Ясно и безоблачно+34°C21 %753 мм3.5 м/с2 %
    12:00Практически безоблачно+37°C19 %753 мм4.6 м/с2 %
    15:00Практически безоблачно+38°C19 %753 мм3.4 м/с2 %
    18:00Небольшая облачность+37°C20 %752 мм2.8 м/с2 %
    21:00Ясно и безоблачно+31°C26 %753 мм3.7 м/с2 %
  • 18июля
    Четверг
    +23°
    +39°
    Ясно и безоблачно
    ВремяПогодаТемператураВлажностьДавлениеВетер, м/сВероятность осадков
    00:00Ясно и безоблачно+28°C31 %753 мм3.7 м/с2 %
    03:00Ясно и безоблачно+25°C36 %753 мм2.8 м/с2 %
    06:00Ясно и безоблачно+26°C35 %753 мм2.6 м/с2 %
    09:00Ясно и безоблачно+34°C23 %753 мм1.8 м/с2 %
    12:00Ясно и безоблачно+37°C18 %752 мм2.1 м/с2 %
    15:00Ясно и безоблачно+39°C16 %751 мм3.1 м/с2 %
    18:00Ясно и безоблачно+38°C16 %750 мм1.1 м/с2 %
    21:00Ясно и безоблачно+30°C26 %751 мм2.2 м/с2 %
  • 19июля
    Пятница
    +25°
    +40°
    Небольшая облачность
    ВремяПогодаТемператураВлажностьДавлениеВетер, м/сВероятность осадков
    00:00Ясно и безоблачно+28°C26 %751 мм2.6 м/с2 %
    03:00Ясно и безоблачно+25°C32 %750 мм2.2 м/с2 %
    06:00Ясно и безоблачно+26°C40 %750 мм1.7 м/с2 %
    09:00Ясно и безоблачно+34°C23 %750 мм2.1 м/с2 %
    12:00Ясно и безоблачно+38°C16 %749 мм1.5 м/с2 %
    15:00Небольшая облачность+40°C15 %748 мм2.7 м/с2 %
    18:00Облачно с прояснениями+38°C14 %747 мм3.2 м/с2 %
    21:00Ясно и безоблачно+31°C34 %747 мм2.4 м/с2 %
  • 20июля
    Суббота
    +23°
    +37°
    Облачно с прояснениями
    ВремяПогодаТемператураВлажностьДавлениеВетер, м/сВероятность осадков
    00:00Ясно и безоблачно+28°C39 %747 мм3.0 м/с2 %
    03:00Ясно и безоблачно+25°C52 %747 мм3.6 м/с2 %
    06:00Ясно и безоблачно+25°C62 %747 мм3.3 м/с2 %
    09:00Практически безоблачно+31°C49 %748 мм4.0 м/с2 %
    12:00Практически безоблачно+35°C33 %747 мм3.8 м/с9 %
    15:00Облачно с прояснениями+37°C28 %748 мм3.1 м/с22 %
    18:00Облачно с прояснениями+34°C24 %747 мм2.7 м/с13 %
    21:00Облачно с прояснениями+29°C31 %748 мм3.2 м/с4 %
Мы используем cookies
Соглашаюсь